createdAt,value
2022-09-20T00:00:42.549Z,12.20
2022-09-20T00:03:11.902Z,12.20
2022-09-20T00:05:40.390Z,12.14
2022-09-20T00:08:08.941Z,12.10
2022-09-20T00:10:37.878Z,12.04
2022-09-20T00:13:05.271Z,11.97
2022-09-20T00:15:32.635Z,11.84
2022-09-20T00:18:00.239Z,11.83
2022-09-20T00:20:28.907Z,11.81
2022-09-20T00:22:56.278Z,11.80
2022-09-20T00:25:23.602Z,11.36
2022-09-20T00:27:50.986Z,11.73
2022-09-20T00:30:18.456Z,11.69
2022-09-20T00:32:45.842Z,11.21
2022-09-20T00:35:12.262Z,11.20
2022-09-20T00:37:42.102Z,11.35
2022-09-20T00:40:10.903Z,11.15
2022-09-20T00:42:38.547Z,11.14
2022-09-20T00:45:07.650Z,11.21
2022-09-20T00:47:37.612Z,11.31
2022-09-20T00:50:13.661Z,11.39
2022-09-20T00:52:44.906Z,11.36
2022-09-20T00:55:12.622Z,11.36
2022-09-20T00:57:40.132Z,11.49
2022-09-20T01:00:08.757Z,11.58
2022-09-20T01:02:37.159Z,11.59
2022-09-20T01:05:04.943Z,11.61
2022-09-20T01:07:34.200Z,11.65
2022-09-20T01:10:02.927Z,11.64
2022-09-20T01:12:31.583Z,11.63
2022-09-20T01:15:00.289Z,11.63
2022-09-20T01:17:28.718Z,11.64
2022-09-20T01:20:03.068Z,11.65
2022-09-20T01:22:35.410Z,11.59
2022-09-20T01:25:08.008Z,11.57
2022-09-20T01:27:42.009Z,11.52
2022-09-20T01:30:10.850Z,11.46
2022-09-20T01:32:45.355Z,11.46
2022-09-20T01:35:14.067Z,11.44
2022-09-20T01:37:48.331Z,10.91
2022-09-20T01:40:21.245Z,11.46
2022-09-20T01:42:59.389Z,11.46
2022-09-20T01:45:29.023Z,11.28
2022-09-20T01:48:01.664Z,11.24
2022-09-20T01:50:34.672Z,11.16
2022-09-20T01:53:26.217Z,11.21
2022-09-20T01:56:12.236Z,11.28
2022-09-20T01:59:22.139Z,11.24
2022-09-20T02:02:04.852Z,11.23
2022-09-20T02:04:47.147Z,11.27
2022-09-20T02:07:23.614Z,11.24
2022-09-20T02:10:01.707Z,11.21
2022-09-20T02:12:36.169Z,11.06
2022-09-20T02:15:09.978Z,11.13
2022-09-20T02:17:46.421Z,11.13
2022-09-20T02:20:24.331Z,11.21
2022-09-20T02:23:07.500Z,11.19
2022-09-20T02:25:43.172Z,11.17
2022-09-20T02:28:18.242Z,11.24
2022-09-20T02:30:48.747Z,11.26
2022-09-20T02:33:33.257Z,11.21
2022-09-20T02:36:08.036Z,11.16
2022-09-20T02:38:45.810Z,11.17
2022-09-20T02:41:37.465Z,11.08
2022-09-20T02:44:08.189Z,11.05
2022-09-20T02:46:38.815Z,10.94
2022-09-20T02:49:12.184Z,10.96
2022-09-20T02:51:41.636Z,10.86
2022-09-20T02:54:16.311Z,10.84
2022-09-20T02:56:46.661Z,10.83
2022-09-20T02:59:20.294Z,10.89
2022-09-20T03:01:50.692Z,11.00
2022-09-20T03:04:33.005Z,10.99
2022-09-20T03:07:04.656Z,11.04
2022-09-20T03:09:34.959Z,11.07
2022-09-20T03:12:08.146Z,11.04
2022-09-20T03:14:37.887Z,11.02
2022-09-20T03:17:16.498Z,11.09
2022-09-20T03:20:00.320Z,11.01
2022-09-20T03:22:32.042Z,10.99
2022-09-20T03:25:10.068Z,11.03
2022-09-20T03:27:43.673Z,11.00
2022-09-20T03:30:19.622Z,11.03
2022-09-20T03:32:53.808Z,10.89
2022-09-20T03:35:30.491Z,10.81
2022-09-20T03:38:04.748Z,10.82
2022-09-20T03:40:58.156Z,10.81
2022-09-20T03:43:33.219Z,10.73
2022-09-20T03:46:06.086Z,10.74
2022-09-20T03:48:59.551Z,10.68
2022-09-20T03:51:34.441Z,10.80
2022-09-20T03:54:14.823Z,10.76
2022-09-20T03:57:06.317Z,10.69
2022-09-20T03:59:43.727Z,10.72
2022-09-20T04:02:24.621Z,10.76
2022-09-20T04:04:54.693Z,10.70
2022-09-20T04:07:29.242Z,10.71
2022-09-20T04:10:05.703Z,10.69
2022-09-20T04:12:39.941Z,10.67
2022-09-20T04:15:17.018Z,10.65
2022-09-20T04:17:48.884Z,10.61
2022-09-20T04:20:20.439Z,10.55
2022-09-20T04:22:51.857Z,10.54
2022-09-20T04:25:21.918Z,10.56
2022-09-20T04:27:52.271Z,10.57
2022-09-20T04:30:21.403Z,10.57
2022-09-20T04:32:51.947Z,10.55
2022-09-20T04:35:44.028Z,10.56
2022-09-20T04:38:15.662Z,10.52
2022-09-20T04:40:53.162Z,10.52
2022-09-20T04:43:38.159Z,10.53
2022-09-20T04:46:20.715Z,10.51
2022-09-20T04:48:57.033Z,10.49
2022-09-20T04:51:39.298Z,10.46
2022-09-20T04:54:19.141Z,10.40
2022-09-20T04:56:57.018Z,10.37
2022-09-20T04:59:34.193Z,10.31
2022-09-20T05:02:13.574Z,10.29
2022-09-20T05:04:58.850Z,10.30
2022-09-20T05:07:46.911Z,10.30
2022-09-20T05:10:24.489Z,10.28
2022-09-20T05:13:01.001Z,10.29
2022-09-20T05:15:36.811Z,10.31
2022-09-20T05:18:15.149Z,10.28
2022-09-20T05:20:47.106Z,10.27
2022-09-20T05:23:22.786Z,10.26
2022-09-20T05:26:03.224Z,10.25
2022-09-20T05:28:34.745Z,10.24
2022-09-20T05:31:06.417Z,10.23
2022-09-20T05:33:38.409Z,10.17
2022-09-20T05:36:09.633Z,10.17
2022-09-20T05:38:44.009Z,10.14
2022-09-20T05:41:18.863Z,10.12
2022-09-20T05:43:53.623Z,10.08
2022-09-20T05:46:31.218Z,10.08
2022-09-20T05:49:03.821Z,10.06
2022-09-20T05:51:42.678Z,10.05
2022-09-20T05:54:22.815Z,10.02
2022-09-20T05:56:56.264Z,10.05
2022-09-20T05:59:29.991Z,10.03
2022-09-20T06:02:10.242Z,10.06
2022-09-20T06:04:41.714Z,10.13
2022-09-20T06:07:16.474Z,9.61
2022-09-20T06:09:57.783Z,9.96
2022-09-20T06:12:35.731Z,10.09
2022-09-20T06:15:12.098Z,10.17
2022-09-20T06:17:43.375Z,10.16
2022-09-20T06:20:17.026Z,10.14
2022-09-20T06:22:46.010Z,10.29
2022-09-20T06:25:17.596Z,10.34
2022-09-20T06:27:48.282Z,10.39
2022-09-20T06:30:17.922Z,10.55
2022-09-20T06:32:58.374Z,10.83
2022-09-20T06:35:28.761Z,10.96
2022-09-20T06:38:19.109Z,11.09
2022-09-20T06:41:14.911Z,11.23
2022-09-20T06:43:43.686Z,11.32
2022-09-20T06:46:12.938Z,11.50
2022-09-20T06:48:40.380Z,11.34
2022-09-20T06:51:08.253Z,11.49
2022-09-20T06:53:38.431Z,11.57
2022-09-20T06:56:06.150Z,11.47
2022-09-20T06:58:33.487Z,11.69
2022-09-20T07:01:02.241Z,11.82
2022-09-20T07:03:31.630Z,12.12
2022-09-20T07:06:00.414Z,12.40
2022-09-20T07:08:27.822Z,12.65
2022-09-20T07:10:55.510Z,12.86
2022-09-20T07:13:23.908Z,13.01
2022-09-20T07:15:51.577Z,12.99
2022-09-20T07:18:20.309Z,12.95
2022-09-20T07:20:47.765Z,12.92
2022-09-20T07:23:15.855Z,12.86
2022-09-20T07:25:43.328Z,12.73
2022-09-20T07:28:10.720Z,12.61
2022-09-20T07:30:39.118Z,12.56
2022-09-20T07:33:07.602Z,12.49
2022-09-20T07:35:36.413Z,12.37
2022-09-20T07:38:03.994Z,12.32
2022-09-20T07:40:31.978Z,12.32
2022-09-20T07:42:59.436Z,12.33
2022-09-20T07:45:26.998Z,12.36
2022-09-20T07:47:54.576Z,12.39
2022-09-20T07:50:22.013Z,12.43
2022-09-20T07:52:50.801Z,12.45
2022-09-20T07:55:18.143Z,12.52
2022-09-20T07:57:45.566Z,12.52
2022-09-20T08:00:13.242Z,12.67
2022-09-20T08:02:40.705Z,12.78
2022-09-20T08:05:08.394Z,13.01
2022-09-20T08:07:35.754Z,13.14
2022-09-20T08:10:04.482Z,13.37
2022-09-20T08:15:20.150Z,13.58
2022-09-20T08:17:48.324Z,13.65
2022-09-20T08:20:15.841Z,13.53
2022-09-20T08:22:43.339Z,13.52
2022-09-20T08:25:12.081Z,13.59
2022-09-20T08:27:39.430Z,13.65
2022-09-20T08:30:07.735Z,13.73
2022-09-20T08:32:35.113Z,13.86
2022-09-20T08:35:02.555Z,13.97
2022-09-20T08:37:30.349Z,14.18
2022-09-20T08:39:58.637Z,14.30
2022-09-20T08:42:33.607Z,14.39
2022-09-20T08:45:04.485Z,14.16
2022-09-20T08:47:35.703Z,14.12
2022-09-20T08:50:17.329Z,14.35
2022-09-20T08:52:46.651Z,14.64
2022-09-20T08:55:16.832Z,14.75
2022-09-20T08:57:49.005Z,14.85
2022-09-20T09:00:18.493Z,14.79
2022-09-20T09:02:46.059Z,14.67
2022-09-20T09:05:26.865Z,14.80
2022-09-20T09:07:55.058Z,14.35
2022-09-20T09:10:22.411Z,14.48
2022-09-20T09:12:52.270Z,14.58
2022-09-20T09:15:24.632Z,14.61
2022-09-20T09:17:52.024Z,14.66
2022-09-20T09:20:21.670Z,14.73
2022-09-20T09:22:49.762Z,14.80
2022-09-20T09:25:24.831Z,14.83
2022-09-20T09:27:55.235Z,14.88
2022-09-20T09:30:24.345Z,14.70
2022-09-20T09:32:51.713Z,14.47
2022-09-20T09:35:27.285Z,14.43
2022-09-20T09:37:55.318Z,14.33
2022-09-20T09:40:22.930Z,14.25
2022-09-20T09:42:51.455Z,13.88
2022-09-20T09:45:28.223Z,14.13
2022-09-20T09:47:55.860Z,14.61
2022-09-20T09:50:24.176Z,14.49
2022-09-20T09:53:02.803Z,14.38
2022-09-20T09:55:36.887Z,14.63
2022-09-20T09:58:08.192Z,14.80
2022-09-20T10:00:42.943Z,14.96
2022-09-20T10:03:20.847Z,15.08
2022-09-20T10:05:57.681Z,15.20
2022-09-20T10:08:31.261Z,15.20
2022-09-20T10:11:05.056Z,15.28
2022-09-20T10:13:40.580Z,15.47
2022-09-20T10:16:16.200Z,15.43
2022-09-20T10:18:47.357Z,15.45
2022-09-20T10:21:19.527Z,15.47
2022-09-20T10:24:04.253Z,15.64
2022-09-20T10:26:40.728Z,15.64
2022-09-20T10:29:15.651Z,15.75
2022-09-20T10:31:49.060Z,15.89
2022-09-20T10:34:29.067Z,16.05
2022-09-20T10:36:58.029Z,16.31
2022-09-20T10:39:29.022Z,16.54
2022-09-20T10:42:17.458Z,16.28
2022-09-20T10:44:53.053Z,16.29
2022-09-20T10:47:26.161Z,16.46
2022-09-20T10:50:01.019Z,15.79
2022-09-20T10:52:35.160Z,16.12
2022-09-20T10:55:09.468Z,16.58
2022-09-20T10:57:55.593Z,17.13
2022-09-20T11:00:36.726Z,17.33
2022-09-20T11:03:12.624Z,17.21
2022-09-20T11:05:44.424Z,17.16
2022-09-20T11:08:13.959Z,17.28
2022-09-20T11:10:43.816Z,17.51
2022-09-20T11:13:16.889Z,17.93
2022-09-20T11:15:47.852Z,18.08
2022-09-20T11:18:23.455Z,17.94
2022-09-20T11:20:57.431Z,17.93
2022-09-20T11:23:26.225Z,17.89
2022-09-20T11:25:55.262Z,18.08
2022-09-20T11:28:26.861Z,18.19
2022-09-20T11:30:56.663Z,18.43
2022-09-20T11:33:28.378Z,18.29
2022-09-20T11:35:58.963Z,18.38
2022-09-20T11:38:31.214Z,18.47
2022-09-20T11:41:01.304Z,18.90
2022-09-20T11:43:30.197Z,19.35
2022-09-20T11:46:00.520Z,19.58
2022-09-20T11:48:30.942Z,20.12
2022-09-20T11:51:15.074Z,21.04
2022-09-20T11:53:58.033Z,21.49
2022-09-20T11:56:26.869Z,21.40
2022-09-20T11:58:55.799Z,20.69
2022-09-20T12:01:28.670Z,20.71
2022-09-20T12:04:20.563Z,21.08
2022-09-20T12:06:46.697Z,20.16
2022-09-20T12:09:24.110Z,19.91
2022-09-20T12:11:52.432Z,19.65
2022-09-20T12:14:20.927Z,19.32
2022-09-20T12:16:49.853Z,19.36
2022-09-20T12:19:38.711Z,18.94
2022-09-20T12:22:33.246Z,18.80
2022-09-20T12:25:20.099Z,18.75
2022-09-20T12:27:57.185Z,18.68
2022-09-20T12:30:24.622Z,18.60
2022-09-20T12:32:53.943Z,18.54
2022-09-20T12:35:39.708Z,18.57
2022-09-20T12:38:26.073Z,18.59
2022-09-20T12:41:00.211Z,18.63
2022-09-20T12:43:28.972Z,18.54
2022-09-20T12:46:01.240Z,18.75
2022-09-20T12:48:35.587Z,18.99
2022-09-20T12:51:21.836Z,19.30
2022-09-20T12:54:05.434Z,19.04
2022-09-20T12:56:34.469Z,18.96
2022-09-20T12:59:05.423Z,18.89
2022-09-20T13:01:35.589Z,18.46
2022-09-20T13:04:21.651Z,18.44
2022-09-20T13:06:49.265Z,18.02
2022-09-20T13:09:18.860Z,18.06
2022-09-20T13:11:50.890Z,17.92
2022-09-20T13:14:22.506Z,17.72
2022-09-20T13:16:53.055Z,17.79
2022-09-20T13:19:21.446Z,17.60
2022-09-20T13:21:53.713Z,17.64
2022-09-20T13:24:24.924Z,17.83
2022-09-20T13:26:54.011Z,17.79
2022-09-20T13:29:25.581Z,17.52
2022-09-20T13:31:52.930Z,17.58
2022-09-20T13:34:21.751Z,18.17
2022-09-20T13:36:56.021Z,18.19
2022-09-20T13:39:28.185Z,18.14
2022-09-20T13:42:02.207Z,18.04
2022-09-20T13:44:34.223Z,17.89
2022-09-20T13:47:01.948Z,17.76
2022-09-20T13:49:33.073Z,17.69
2022-09-20T13:52:00.957Z,17.57
2022-09-20T13:54:31.021Z,17.51
2022-09-20T13:56:59.875Z,17.43
2022-09-20T13:59:31.071Z,17.30
2022-09-20T14:01:58.611Z,17.14
2022-09-20T14:04:27.006Z,17.34
2022-09-20T14:06:56.260Z,17.52
2022-09-20T14:09:28.431Z,18.54
2022-09-20T14:11:57.268Z,19.26
2022-09-20T14:14:25.108Z,19.18
2022-09-20T14:16:54.172Z,19.02
2022-09-20T14:19:25.686Z,18.84
2022-09-20T14:21:53.097Z,18.75
2022-09-20T14:24:26.104Z,18.52
2022-09-20T14:27:11.950Z,18.35
2022-09-20T14:29:42.082Z,18.31
2022-09-20T14:32:14.842Z,18.01
2022-09-20T14:34:42.368Z,18.18
2022-09-20T14:37:12.850Z,17.97
2022-09-20T14:39:47.216Z,17.92
2022-09-20T14:42:19.202Z,18.20
2022-09-20T14:44:50.762Z,19.38
2022-09-20T14:47:18.117Z,20.56
2022-09-20T14:49:45.502Z,20.96
2022-09-20T14:52:38.055Z,20.57
2022-09-20T14:55:17.616Z,19.87
2022-09-20T14:57:46.095Z,19.30
2022-09-20T15:00:16.461Z,19.15
2022-09-20T15:02:45.395Z,18.72
2022-09-20T15:05:19.058Z,18.38
2022-09-20T15:07:46.786Z,18.04
2022-09-20T15:10:14.726Z,17.92
2022-09-20T15:12:42.855Z,17.79
2022-09-20T15:15:14.798Z,17.70
2022-09-20T15:17:43.839Z,17.62
2022-09-20T15:20:17.244Z,17.55
2022-09-20T15:22:46.909Z,17.46
2022-09-20T15:25:16.130Z,17.39
2022-09-20T15:27:44.415Z,17.35
2022-09-20T15:30:12.981Z,17.23
2022-09-20T15:32:40.956Z,16.75
2022-09-20T15:35:11.728Z,17.07
2022-09-20T15:37:39.079Z,16.96
2022-09-20T15:40:08.124Z,16.96
2022-09-20T15:42:37.843Z,16.89
2022-09-20T15:45:08.909Z,16.89
2022-09-20T15:47:36.680Z,16.90
2022-09-20T15:50:04.776Z,17.13
2022-09-20T15:52:36.033Z,17.31
2022-09-20T15:55:04.645Z,17.35
2022-09-20T15:57:32.072Z,17.36
2022-09-20T16:00:00.258Z,17.74
2022-09-20T16:02:28.927Z,18.23
2022-09-20T16:04:56.410Z,18.57
2022-09-20T16:07:26.476Z,18.92
2022-09-20T16:09:55.820Z,18.96
2022-09-20T16:12:23.683Z,18.94
2022-09-20T16:14:51.133Z,18.73
2022-09-20T16:17:18.640Z,18.85
2022-09-20T16:19:47.579Z,18.62
2022-09-20T16:22:15.834Z,18.35
2022-09-20T16:24:43.436Z,18.03
2022-09-20T16:27:12.193Z,17.75
2022-09-20T16:29:39.564Z,17.47
2022-09-20T16:32:07.029Z,17.39
2022-09-20T16:34:35.490Z,17.17
2022-09-20T16:37:04.083Z,17.00
2022-09-20T16:39:31.709Z,16.77
2022-09-20T16:42:03.492Z,16.59
2022-09-20T16:44:32.601Z,16.34
2022-09-20T16:47:00.000Z,16.18
2022-09-20T16:49:28.685Z,16.16
2022-09-20T16:51:56.191Z,16.07
2022-09-20T16:54:27.357Z,15.96
2022-09-20T16:56:57.208Z,15.86
2022-09-20T16:59:24.637Z,15.74
2022-09-20T17:01:53.367Z,15.73
2022-09-20T17:04:21.272Z,15.31
2022-09-20T17:06:49.080Z,15.71
2022-09-20T17:09:17.159Z,15.70
2022-09-20T17:11:45.635Z,15.62
2022-09-20T17:14:13.575Z,15.48
2022-09-20T17:16:41.980Z,15.45
2022-09-20T17:19:12.077Z,15.32
2022-09-20T17:21:40.625Z,15.32
2022-09-20T17:24:08.245Z,15.27
2022-09-20T17:26:37.485Z,15.23
2022-09-20T17:29:06.517Z,15.08
2022-09-20T17:31:34.590Z,15.06
2022-09-20T17:34:02.465Z,14.89
2022-09-20T17:36:32.458Z,14.83
2022-09-20T17:39:04.232Z,14.76
2022-09-20T17:41:32.465Z,14.65
2022-09-20T17:44:00.659Z,14.49
2022-09-20T17:46:30.391Z,14.40
2022-09-20T17:49:00.464Z,14.34
2022-09-20T17:51:28.643Z,14.23
2022-09-20T17:53:57.456Z,14.15
2022-09-20T17:56:28.469Z,14.10
2022-09-20T17:58:56.612Z,14.03
2022-09-20T18:01:25.880Z,13.89
2022-09-20T18:03:53.308Z,13.85
2022-09-20T18:06:22.403Z,13.80
2022-09-20T18:08:50.430Z,13.78
2022-09-20T18:11:20.857Z,13.75
2022-09-20T18:13:48.191Z,13.69
2022-09-20T18:16:16.303Z,13.63
2022-09-20T18:18:44.506Z,13.61
2022-09-20T18:21:15.781Z,13.56
2022-09-20T18:23:43.274Z,13.51
2022-09-20T18:26:23.392Z,13.44
2022-09-20T18:28:57.190Z,13.35
2022-09-20T18:31:25.651Z,13.29
2022-09-20T18:33:53.596Z,12.81
2022-09-20T18:36:21.083Z,13.14
2022-09-20T18:38:54.084Z,13.07
2022-09-20T18:41:23.679Z,13.01
2022-09-20T18:43:51.281Z,12.95
2022-09-20T18:46:24.939Z,12.86
2022-09-20T18:48:52.784Z,12.81
2022-09-20T18:51:20.716Z,12.77
2022-09-20T18:53:48.328Z,12.75
2022-09-20T18:56:21.252Z,12.71
2022-09-20T18:58:48.867Z,12.72
2022-09-20T19:01:27.650Z,12.72
2022-09-20T19:03:59.056Z,12.74
2022-09-20T19:06:29.001Z,12.70
2022-09-20T19:08:59.076Z,12.75
2022-09-20T19:11:28.483Z,12.75
2022-09-20T19:13:58.834Z,12.76
2022-09-20T19:16:30.562Z,12.76
2022-09-20T19:19:12.857Z,12.77
2022-09-20T19:21:43.427Z,12.72
2022-09-20T19:24:16.655Z,12.68
2022-09-20T19:26:44.636Z,12.67
2022-09-20T19:29:18.172Z,12.65
2022-09-20T19:31:47.682Z,12.64
2022-09-20T19:34:18.942Z,12.61
2022-09-20T19:36:50.198Z,12.61
2022-09-20T19:39:23.628Z,12.60
2022-09-20T19:41:54.195Z,12.55
2022-09-20T19:44:32.202Z,12.54
2022-09-20T19:47:10.829Z,12.53
2022-09-20T19:49:45.744Z,12.55
2022-09-20T19:52:13.673Z,12.55
2022-09-20T19:54:46.281Z,12.56
2022-09-20T19:57:18.291Z,12.59
2022-09-20T19:59:46.212Z,12.60
2022-09-20T20:02:15.388Z,12.61
2022-09-20T20:04:43.467Z,12.62
2022-09-20T20:07:16.461Z,12.62
2022-09-20T20:09:46.605Z,12.67
2022-09-20T20:12:15.762Z,12.68
2022-09-20T20:14:48.936Z,12.69
2022-09-20T20:17:22.808Z,12.71
2022-09-20T20:20:00.888Z,12.69
2022-09-20T20:22:38.635Z,12.64
2022-09-20T20:25:10.092Z,12.66
2022-09-20T20:27:40.315Z,12.67
2022-09-20T20:30:08.247Z,12.66
2022-09-20T20:32:36.908Z,12.66
2022-09-20T20:35:04.638Z,12.67
2022-09-20T20:37:32.213Z,12.69
2022-09-20T20:39:59.575Z,12.70
2022-09-20T20:42:27.849Z,12.68
2022-09-20T20:44:55.207Z,12.69
2022-09-20T20:47:23.036Z,12.68
2022-09-20T20:49:53.351Z,12.67
2022-09-20T20:52:20.728Z,12.67
2022-09-20T20:54:48.747Z,12.69
2022-09-20T20:57:18.910Z,12.68
2022-09-20T20:59:46.312Z,12.26
2022-09-20T21:02:13.664Z,12.68
2022-09-20T21:04:42.057Z,12.66
2022-09-20T21:07:10.719Z,12.62
2022-09-20T21:09:39.612Z,12.63
2022-09-20T21:12:07.262Z,12.65
2022-09-20T21:14:34.925Z,12.64
2022-09-20T21:17:02.827Z,12.62
2022-09-20T21:19:30.277Z,12.56
2022-09-20T21:21:57.711Z,12.56
2022-09-20T21:24:26.424Z,12.57
2022-09-20T21:26:53.801Z,12.60
2022-09-20T21:29:21.183Z,12.58
2022-09-20T21:31:48.581Z,12.55
2022-09-20T21:34:16.701Z,12.54
2022-09-20T21:36:45.013Z,12.55
2022-09-20T21:39:12.636Z,12.48
2022-09-20T21:41:41.425Z,12.41
2022-09-20T21:44:10.706Z,12.43
2022-09-20T21:46:40.002Z,12.42
2022-09-20T21:49:08.870Z,12.41
2022-09-20T21:51:36.673Z,12.38
2022-09-20T21:54:04.508Z,12.35
2022-09-20T21:56:33.112Z,12.33
2022-09-20T21:59:04.005Z,12.25
2022-09-20T22:01:34.417Z,12.23
2022-09-20T22:04:04.767Z,12.24
2022-09-20T22:06:34.564Z,12.23
2022-09-20T22:09:03.463Z,12.23
2022-09-20T22:11:31.990Z,12.19
2022-09-20T22:13:59.986Z,12.17
2022-09-20T22:16:29.452Z,12.14
2022-09-20T22:18:57.145Z,12.07
2022-09-20T22:21:25.829Z,12.02
2022-09-20T22:23:56.216Z,11.94
2022-09-20T22:26:24.307Z,11.88
2022-09-20T22:28:51.899Z,11.81
2022-09-20T22:31:20.555Z,11.74
2022-09-20T22:33:51.262Z,11.71
2022-09-20T22:36:21.306Z,11.64
2022-09-20T22:38:49.230Z,11.55
2022-09-20T22:41:17.946Z,11.51
2022-09-20T22:43:45.812Z,11.45
2022-09-20T22:46:14.036Z,11.40
2022-09-20T22:48:42.042Z,11.33
2022-09-20T22:51:11.910Z,11.33
2022-09-20T22:53:39.463Z,11.29
2022-09-20T22:56:08.107Z,11.22
2022-09-20T22:58:36.797Z,11.17
2022-09-20T23:01:05.510Z,11.13
2022-09-20T23:03:33.151Z,11.09
2022-09-20T23:06:00.741Z,11.06
2022-09-20T23:08:29.689Z,11.01
2022-09-20T23:11:00.833Z,10.96
2022-09-20T23:13:28.351Z,10.93
2022-09-20T23:15:55.880Z,10.90
2022-09-20T23:18:23.519Z,10.90
2022-09-20T23:20:58.610Z,10.88
2022-09-20T23:23:26.157Z,10.84
2022-09-20T23:25:55.603Z,10.84
2022-09-20T23:28:23.299Z,10.80
2022-09-20T23:30:50.887Z,10.79
2022-09-20T23:33:18.498Z,10.79
2022-09-20T23:35:46.347Z,10.79
2022-09-20T23:38:14.407Z,10.78
2022-09-20T23:40:42.037Z,10.78
2022-09-20T23:43:10.931Z,10.77
2022-09-20T23:45:38.503Z,10.74
2022-09-20T23:48:06.080Z,10.72
2022-09-20T23:50:33.623Z,10.67
2022-09-20T23:53:01.185Z,10.67
2022-09-20T23:55:28.865Z,10.67
2022-09-20T23:57:57.627Z,10.66
